Porto Di Livorno — IFPU2 — position and weather

sailwx.info

Track history (hours):
 
Tides and Currents Weather Stations Pressure Air Temp Water Temp Dewpoint Dewpoint Depression Visibility Wind Speed Wind Dir Waves Ship Positions

Porto Di Livorno

Last reported at 2015-Apr-18 15:33 UTC. Time now 2015-Apr-19 03:03 UTC.
Position N 43°34' E 010°18'.

Length 24 m; draft 6.1 m.

Type: Tug. MMSI: 247194299.

Date/timePositionNaut miles runAvg speedWind from/ knotsBaromVisibWave heightAir tempDewpointWater temp
2015-Apr-18 15:33N 43°34' E 010°18'0 0.0
2015-Apr-18 14:33N 43°34' E 010°18'0 0.0
2015-Apr-18 13:33N 43°34' E 010°18'0 0.0
2015-Apr-18 12:33N 43°34' E 010°18'0 0.0
2015-Apr-18 11:33N 43°34' E 010°18'2 1.5
2015-Apr-18 10:33N 43°35' E 010°19'2 1.5
2015-Apr-18 09:33N 43°34' E 010°18'0 0.0
2015-Apr-18 08:33N 43°34' E 010°18'1 0.8
2015-Apr-18 07:33N 43°34' E 010°18'0 0.5
2015-Apr-18 06:33N 43°34' E 010°18'0 0.3
2015-Apr-18 05:33N 43°34' E 010°18'1 0.7
2015-Apr-18 04:33N 43°33' E 010°18'1 0.7
2015-Apr-18 03:33N 43°34' E 010°18'0 0.0
2015-Apr-18 02:33N 43°34' E 010°18'0 0.0
2015-Apr-18 01:33N 43°34' E 010°18'0 0.0
2015-Apr-18 00:33N 43°34' E 010°18'0 0.0
2015-Apr-17 23:33N 43°34' E 010°18'0 0.0
2015-Apr-17 22:33N 43°34' E 010°18'0 0.0
2015-Apr-17 21:33N 43°34' E 010°18'0 0.0
2015-Apr-17 20:33N 43°34' E 010°18'0 0.0
2015-Apr-17 19:33N 43°34' E 010°18'1 0.8
2015-Apr-17 18:33N 43°33' E 010°17'1 1.4
2015-Apr-17 17:33N 43°34' E 010°19'1 0.7
2015-Apr-17 16:33N 43°34' E 010°18'0 0.0
2015-Apr-16 15:33N 43°34' E 010°18'0 0.0
2015-Apr-16 14:33N 43°34' E 010°18'0 0.0
2015-Apr-16 13:33N 43°34' E 010°18'1 1.0
2015-Apr-16 12:34N 43°35' E 010°18'1 1.2
2015-Apr-16 11:33N 43°34' E 010°18'0 0.3
2015-Apr-16 10:33N 43°34' E 010°18'0 0.0
2015-Apr-16 09:33N 43°34' E 010°18'0 0.0
2015-Apr-16 08:33N 43°34' E 010°18'0 0.0
2015-Apr-16 07:33N 43°34' E 010°18'1 1.4
2015-Apr-16 06:33N 43°35' E 010°19'2 2.2
2015-Apr-16 05:34N 43°33' E 010°18'2 1.8
2015-Apr-16 04:33N 43°35' E 010°18'1 1.0
2015-Apr-16 03:33N 43°34' E 010°18'0 0.0
2015-Apr-16 02:34N 43°34' E 010°18'1 1.4
2015-Apr-16 01:34N 43°35' E 010°19'1 1.4
2015-Apr-16 00:33N 43°34' E 010°18'0 0.0
2015-Apr-15 23:34N 43°34' E 010°18'0 0.0
2015-Apr-15 22:33N 43°34' E 010°18'1 0.6
2015-Apr-15 21:34N 43°33' E 010°18'0 0.1
2015-Apr-15 20:34N 43°33' E 010°18'0 0.2
2015-Apr-15 19:33N 43°33' E 010°18'0 0.4
2015-Apr-15 18:33N 43°34' E 010°18'0 0.0
2015-Apr-15 17:34N 43°34' E 010°18'1 0.9
2015-Apr-15 16:33N 43°34' E 010°19'0 0.0
2015-Apr-14 18:34N 43°34' E 010°18'3 2.9
2015-Apr-14 17:33N 43°32' E 010°16'2 2.1
2015-Apr-14 16:34N 43°33' E 010°18'2 1.6
2015-Apr-14 15:34N 43°35' E 010°19'1 0.5
2015-Apr-14 14:34N 43°35' E 010°18'1 1.1
2015-Apr-14 13:33N 43°34' E 010°18'0 0.0
2015-Apr-14 12:34N 43°34' E 010°18'1 0.6
2015-Apr-14 11:33N 43°34' E 010°18'1 0.6
2015-Apr-14 10:33N 43°34' E 010°18'0 0.0
2015-Apr-14 09:33N 43°34' E 010°18'0 0.0
2015-Apr-14 08:34N 43°34' E 010°18'0 0.0
2015-Apr-14 07:33N 43°34' E 010°18'1 0.1
2015-Apr-13 17:34N 43°33' E 010°18'1 1.0
2015-Apr-13 16:33N 43°34' E 010°18'0 0.0
2015-Apr-13 10:33N 43°34' E 010°18'0 0.0
2015-Apr-13 09:34N 43°34' E 010°18'0 0.0
2015-Apr-13 08:33N 43°34' E 010°18'0 0.0
2015-Apr-13 07:33N 43°34' E 010°18'0 0.0
2015-Apr-11 06:23N 43°34' E 010°18'1 0.6
2015-Apr-11 05:33N 43°34' E 010°18'0 0.5
2015-Apr-11 04:33N 43°34' E 010°18'0 0.0
2015-Apr-10 16:22N 43°34' E 010°18'0 0.2
2015-Apr-10 15:34N 43°34' E 010°18'0 0.1
2015-Apr-10 14:34N 43°34' E 010°18'0 0.2
2015-Apr-10 13:33N 43°34' E 010°18'0 0.0
2015-Apr-10 12:34N 43°34' E 010°18'0 0.0
2015-Apr-10 09:34N 43°34' E 010°18'0 0.0
2015-Apr-10 08:34N 43°34' E 010°18'0 0.0
2015-Apr-10 07:34N 43°34' E 010°18'0 0.0
2015-Apr-10 06:33N 43°34' E 010°18'0 0.0
2015-Apr-10 05:34N 43°34' E 010°18'0 0.0
2015-Apr-10 04:33N 43°34' E 010°18'0 0.0
2015-Apr-09 14:33N 43°34' E 010°18'0 0.0
2015-Apr-09 13:33N 43°34' E 010°18'0 0.0
2015-Apr-09 12:33N 43°34' E 010°18'0 0.0
2015-Apr-09 11:33N 43°34' E 010°18'0 0.0
2015-Apr-09 10:33N 43°34' E 010°18'0 0.0
2015-Apr-09 09:27N 43°34' E 010°18'0 0.0
2015-Apr-09 08:33N 43°34' E 010°18'0 0.0
2015-Apr-09 07:33N 43°34' E 010°18'0 0.0
2015-Apr-09 06:33N 43°34' E 010°18'0 0.0
2015-Apr-09 05:33N 43°34' E 010°18'0 0.0
2015-Apr-09 04:33N 43°34' E 010°18'0 0.0
2015-Apr-08 15:33N 43°34' E 010°18'  
Track history (hours):
 
Tides and Currents Weather Stations Pressure Air Temp Water Temp Dewpoint Dewpoint Depression Visibility Wind Speed Wind Dir Waves Ship Positions

Porto Di Livorno

Last reported at 2015-Apr-18 15:33 UTC. Time now 2015-Apr-19 03:03 UTC.
Position N 43°34' E 010°18'.

Length 24 m; draft 6.1 m.

Type: Tug. MMSI: 247194299.

Date/timePositionNaut miles runAvg speedWind from/ knotsBaromVisibWave heightAir tempDewpointWater temp
2015-Apr-18 15:33N 43°34' E 010°18'0 0.0
2015-Apr-18 14:33N 43°34' E 010°18'0 0.0
2015-Apr-18 13:33N 43°34' E 010°18'0 0.0
2015-Apr-18 12:33N 43°34' E 010°18'0 0.0
2015-Apr-18 11:33N 43°34' E 010°18'2 1.5
2015-Apr-18 10:33N 43°35' E 010°19'2 1.5
2015-Apr-18 09:33N 43°34' E 010°18'0 0.0
2015-Apr-18 08:33N 43°34' E 010°18'1 0.8
2015-Apr-18 07:33N 43°34' E 010°18'0 0.5
2015-Apr-18 06:33N 43°34' E 010°18'0 0.3
2015-Apr-18 05:33N 43°34' E 010°18'1 0.7
2015-Apr-18 04:33N 43°33' E 010°18'1 0.7
2015-Apr-18 03:33N 43°34' E 010°18'0 0.0
2015-Apr-18 02:33N 43°34' E 010°18'0 0.0
2015-Apr-18 01:33N 43°34' E 010°18'0 0.0
2015-Apr-18 00:33N 43°34' E 010°18'0 0.0
2015-Apr-17 23:33N 43°34' E 010°18'0 0.0
2015-Apr-17 22:33N 43°34' E 010°18'0 0.0
2015-Apr-17 21:33N 43°34' E 010°18'0 0.0
2015-Apr-17 20:33N 43°34' E 010°18'0 0.0
2015-Apr-17 19:33N 43°34' E 010°18'1 0.8
2015-Apr-17 18:33N 43°33' E 010°17'1 1.4
2015-Apr-17 17:33N 43°34' E 010°19'1 0.7
2015-Apr-17 16:33N 43°34' E 010°18'0 0.0
2015-Apr-16 15:33N 43°34' E 010°18'0 0.0
2015-Apr-16 14:33N 43°34' E 010°18'0 0.0
2015-Apr-16 13:33N 43°34' E 010°18'1 1.0
2015-Apr-16 12:34N 43°35' E 010°18'1 1.2
2015-Apr-16 11:33N 43°34' E 010°18'0 0.3
2015-Apr-16 10:33N 43°34' E 010°18'0 0.0
2015-Apr-16 09:33N 43°34' E 010°18'0 0.0
2015-Apr-16 08:33N 43°34' E 010°18'0 0.0
2015-Apr-16 07:33N 43°34' E 010°18'1 1.4
2015-Apr-16 06:33N 43°35' E 010°19'2 2.2
2015-Apr-16 05:34N 43°33' E 010°18'2 1.8
2015-Apr-16 04:33N 43°35' E 010°18'1 1.0
2015-Apr-16 03:33N 43°34' E 010°18'0 0.0
2015-Apr-16 02:34N 43°34' E 010°18'1 1.4
2015-Apr-16 01:34N 43°35' E 010°19'1 1.4
2015-Apr-16 00:33N 43°34' E 010°18'0 0.0
2015-Apr-15 23:34N 43°34' E 010°18'0 0.0
2015-Apr-15 22:33N 43°34' E 010°18'1 0.6
2015-Apr-15 21:34N 43°33' E 010°18'0 0.1
2015-Apr-15 20:34N 43°33' E 010°18'0 0.2
2015-Apr-15 19:33N 43°33' E 010°18'0 0.4
2015-Apr-15 18:33N 43°34' E 010°18'0 0.0
2015-Apr-15 17:34N 43°34' E 010°18'1 0.9
2015-Apr-15 16:33N 43°34' E 010°19'0 0.0
2015-Apr-14 18:34N 43°34' E 010°18'3 2.9
2015-Apr-14 17:33N 43°32' E 010°16'2 2.1
2015-Apr-14 16:34N 43°33' E 010°18'2 1.6
2015-Apr-14 15:34N 43°35' E 010°19'1 0.5
2015-Apr-14 14:34N 43°35' E 010°18'1 1.1
2015-Apr-14 13:33N 43°34' E 010°18'0 0.0
2015-Apr-14 12:34N 43°34' E 010°18'1 0.6
2015-Apr-14 11:33N 43°34' E 010°18'1 0.6
2015-Apr-14 10:33N 43°34' E 010°18'0 0.0
2015-Apr-14 09:33N 43°34' E 010°18'0 0.0
2015-Apr-14 08:34N 43°34' E 010°18'0 0.0
2015-Apr-14 07:33N 43°34' E 010°18'1 0.1
2015-Apr-13 17:34N 43°33' E 010°18'1 1.0
2015-Apr-13 16:33N 43°34' E 010°18'0 0.0
2015-Apr-13 10:33N 43°34' E 010°18'0 0.0
2015-Apr-13 09:34N 43°34' E 010°18'0 0.0
2015-Apr-13 08:33N 43°34' E 010°18'0 0.0
2015-Apr-13 07:33N 43°34' E 010°18'0 0.0
2015-Apr-11 06:23N 43°34' E 010°18'1 0.6
2015-Apr-11 05:33N 43°34' E 010°18'0 0.5
2015-Apr-11 04:33N 43°34' E 010°18'0 0.0
2015-Apr-10 16:22N 43°34' E 010°18'0 0.2
2015-Apr-10 15:34N 43°34' E 010°18'0 0.1
2015-Apr-10 14:34N 43°34' E 010°18'0 0.2
2015-Apr-10 13:33N 43°34' E 010°18'0 0.0
2015-Apr-10 12:34N 43°34' E 010°18'0 0.0
2015-Apr-10 09:34N 43°34' E 010°18'0 0.0
2015-Apr-10 08:34N 43°34' E 010°18'0 0.0
2015-Apr-10 07:34N 43°34' E 010°18'0 0.0
2015-Apr-10 06:33N 43°34' E 010°18'0 0.0
2015-Apr-10 05:34N 43°34' E 010°18'0 0.0
2015-Apr-10 04:33N 43°34' E 010°18'0 0.0
2015-Apr-09 14:33N 43°34' E 010°18'0 0.0
2015-Apr-09 13:33N 43°34' E 010°18'0 0.0
2015-Apr-09 12:33N 43°34' E 010°18'0 0.0
2015-Apr-09 11:33N 43°34' E 010°18'0 0.0
2015-Apr-09 10:33N 43°34' E 010°18'0 0.0
2015-Apr-09 09:27N 43°34' E 010°18'0 0.0
2015-Apr-09 08:33N 43°34' E 010°18'0 0.0
2015-Apr-09 07:33N 43°34' E 010°18'0 0.0
2015-Apr-09 06:33N 43°34' E 010°18'0 0.0
2015-Apr-09 05:33N 43°34' E 010°18'0 0.0
2015-Apr-09 04:33N 43°34' E 010°18'0 0.0
2015-Apr-08 15:33N 43°34' E 010°18'  

Dump ship's entire track history